Time;durP1;ratioP1;P1;durP2;ratioP2;P2;SDS_P1;SDS_P2;PMS_P1;PMS_P2;Temp;Humidity;BMP_temperature;BMP_pressure;BME280_temperature;BME280_humidity;BME280_pressure;Samples;Min_cycle;Max_cycle;Signal;HPM_P1;HPM_P2
2023/07/02 00:02:00;;;;;;;;;;;;;;;19.04;75.18;92309.06;2055694;70;20061;-77
2023/07/02 00:04:26;;;;;;;;;;;;;;;19.19;74.91;92302.28;2055871;69;20065;-78
2023/07/02 00:06:51;;;;;;;;;;;;;;;19.25;75.19;92316.69;2055545;70;20054;-75
2023/07/02 00:09:17;;;;;;;;;;;;;;;19.24;75.14;92312.41;2055784;70;20055;-77
2023/07/02 00:11:45;;;;;;;;;;;;;;;19.23;75.07;92315.91;2055804;69;20051;-78
2023/07/02 00:14:11;;;;;;;;;;;;;;;19.21;75.22;92319.44;2055887;70;20050;-79
2023/07/02 00:16:38;;;;;;;;;;;;;;;19.29;73.21;92316.06;2055665;69;20049;-78
2023/07/02 00:19:05;;;;;;;;;;;;;;;19.21;74.51;92319.44;2055721;70;20401;-78
2023/07/02 00:21:33;;;;;;;;;;;;;;;19.15;74.76;92321.44;2055316;70;20049;-79
2023/07/02 00:23:59;;;;;;;;;;;;;;;19.19;74.42;92325.09;2055898;70;20094;-78
2023/07/02 00:26:25;;;;;;;;;;;;;;;19.17;74.78;92336.47;2055669;70;20151;-79
2023/07/02 00:28:51;;;;;;;;;;;;;;;19.16;74.94;92326.47;2055767;70;20062;-79
2023/07/02 00:31:16;;;;;;;;;;;;;;;19.11;75.46;92329.91;2057394;70;20049;-77
2023/07/02 00:33:42;;;;;;;;;;;;;;;19.12;75.47;92337.06;2056000;70;20130;-76
2023/07/02 00:39:36;;;;;;;;;;;;;;;19.14;76.34;92348.50;2055815;69;20119;-81
2023/07/02 00:42:05;;;;;;;;;;;;;;;19.09;75.80;92349.81;2066167;69;20074;-79
2023/07/02 00:44:30;;;;;;;;;;;;;;;19.10;75.70;92342.72;2056087;70;20052;-78
2023/07/02 00:46:57;;;;;;;;;;;;;;;18.86;76.47;92354.97;2056012;70;20142;-78
2023/07/02 00:49:23;;;;;;;;;;;;;;;18.52;79.35;92360.53;2055792;70;20490;-78
2023/07/02 00:51:48;;;;;;;;;;;;;;;18.53;79.11;92365.53;2048910;69;20077;-79
2023/07/02 00:54:14;;;;;;;;;;;;;;;18.50;78.80;92355.47;2048741;70;20051;-79
2023/07/02 01:00:13;;;;;;;;;;;;;;;18.79;77.49;92350.53;2049193;70;20073;-80
2023/07/02 01:02:45;;;;;;;;;;;;;;;18.90;76.88;92346.53;2049197;70;20062;-79
2023/07/02 01:05:14;;;;;;;;;;;;;;;18.92;76.88;92345.84;2049153;70;20059;-80
2023/07/02 01:07:40;;;;;;;;;;;;;;;18.81;77.92;92344.16;2048710;69;20480;-80
2023/07/02 01:10:06;;;;;;;;;;;;;;;18.87;77.45;92342.16;2048597;70;20120;-78
2023/07/02 01:12:33;;;;;;;;;;;;;;;18.87;76.78;92347.88;2048613;70;20175;-78
2023/07/02 01:15:01;;;;;;;;;;;;;;;18.78;77.90;92337.66;2048730;70;20099;-78
2023/07/02 01:17:27;;;;;;;;;;;;;;;18.80;77.83;92340.59;2049013;70;20418;-79
2023/07/02 01:19:58;;;;;;;;;;;;;;;18.73;77.79;92336.84;2048521;70;20454;-79
2023/07/02 01:22:26;;;;;;;;;;;;;;;18.77;77.56;92330.53;2048662;69;20062;-80
2023/07/02 01:24:52;;;;;;;;;;;;;;;18.78;77.23;92338.41;2049030;70;20043;-79
2023/07/02 01:27:18;;;;;;;;;;;;;;;18.74;77.05;92326.19;2048223;70;20077;-80
2023/07/02 01:29:46;;;;;;;;;;;;;;;18.69;76.63;92324.63;2048869;69;20594;-77
2023/07/02 01:32:14;;;;;;;;;;;;;;;18.70;77.92;92317.53;2048472;70;20110;-77
2023/07/02 01:34:40;;;;;;;;;;;;;;;18.54;78.08;92321.38;2049148;70;20069;-80
2023/07/02 01:37:37;;;;;;;;;;;;;;;18.62;77.76;92314.44;2048678;70;20081;-79
2023/07/02 01:40:03;;;;;;;;;;;;;;;18.58;78.56;92325.75;2049336;70;20422;-78
2023/07/02 01:42:28;;;;;;;;;;;;;;;18.60;78.43;92320.09;2049267;70;20074;-78
2023/07/02 01:44:54;;;;;;;;;;;;;;;18.61;78.08;92330.84;2050478;70;20051;-79
2023/07/02 01:47:19;;;;;;;;;;;;;;;18.64;78.03;92335.16;2049272;70;20135;-79
2023/07/02 01:49:50;;;;;;;;;;;;;;;18.68;75.76;92326.00;2050447;70;20454;-79
2023/07/02 01:52:16;;;;;;;;;;;;;;;18.62;77.58;92320.88;2068582;69;20047;-79
2023/07/02 01:54:42;;;;;;;;;;;;;;;18.69;77.78;92328.22;2055806;69;20051;-79
2023/07/02 01:57:08;;;;;;;;;;;;;;;18.68;78.24;92323.16;2055815;70;20062;-79
2023/07/02 01:59:34;;;;;;;;;;;;;;;18.67;77.77;92324.56;2068750;69;20537;-79
2023/07/02 02:02:00;;;;;;;;;;;;;;;18.65;78.22;92333.06;2055586;69;20486;-79
2023/07/02 02:04:26;;;;;;;;;;;;;;;18.60;77.83;92326.53;2055625;69;20061;-79
2023/07/02 02:06:52;;;;;;;;;;;;;;;18.45;78.95;92330.41;2068100;69;20057;-77
2023/07/02 02:09:18;;;;;;;;;;;;;;;18.47;78.72;92336.91;2055228;70;20054;-76
2023/07/02 02:11:44;;;;;;;;;;;;;;;18.43;78.57;92347.47;2055428;70;20081;-79
2023/07/02 02:14:10;;;;;;;;;;;;;;;18.40;78.80;92337.41;2068117;69;20441;-80
2023/07/02 02:16:35;;;;;;;;;;;;;;;18.41;79.04;92338.84;2055149;70;20050;-78
2023/07/02 02:19:03;;;;;;;;;;;;;;;18.47;78.80;92339.75;2068421;69;20054;-78
2023/07/02 02:25:00;;;;;;;;;;;;;;;18.51;78.23;92354.09;2055752;70;20413;-78
2023/07/02 02:30:55;;;;;;;;;;;;;;;18.51;78.48;92356.94;2055550;69;20085;-78
2023/07/02 02:33:21;;;;;;;;;;;;;;;18.46;77.27;92343.25;2068511;69;20082;-78
2023/07/02 02:35:48;;;;;;;;;;;;;;;18.46;78.10;92341.16;2055551;70;20050;-79
2023/07/02 02:38:14;;;;;;;;;;;;;;;18.34;79.01;92346.53;2055592;69;20486;-77
2023/07/02 02:40:40;;;;;;;;;;;;;;;18.47;78.18;92345.44;2068619;69;20089;-77
2023/07/02 02:43:08;;;;;;;;;;;;;;;18.57;77.50;92347.09;2068526;69;20054;-79
2023/07/02 02:45:34;;;;;;;;;;;;;;;18.33;79.17;92347.19;2068575;69;20081;-78
2023/07/02 02:48:00;;;;;;;;;;;;;;;18.46;77.72;92348.94;2068526;69;20677;-79
2023/07/02 02:50:25;;;;;;;;;;;;;;;18.42;78.34;92337.47;2055766;69;20528;-80
2023/07/02 02:52:52;;;;;;;;;;;;;;;18.35;78.02;92345.13;2068252;69;20094;-80
2023/07/02 02:55:18;;;;;;;;;;;;;;;18.44;77.95;92335.38;2068651;69;20190;-80
2023/07/02 02:57:44;;;;;;;;;;;;;;;18.40;78.43;92337.41;2055616;69;20058;-79
2023/07/02 03:00:09;;;;;;;;;;;;;;;18.24;79.50;92343.41;2055696;69;20053;-79
2023/07/02 03:02:35;;;;;;;;;;;;;;;18.24;79.03;92337.72;2068416;69;20486;-79
2023/07/02 03:05:02;;;;;;;;;;;;;;;18.28;78.44;92334.97;2068663;69;20062;-79
2023/07/02 03:07:28;;;;;;;;;;;;;;;18.23;78.94;92330.53;2055516;70;20160;-79
2023/07/02 03:09:54;;;;;;;;;;;;;;;18.25;78.82;92330.59;2068535;69;20070;-79
2023/07/02 03:12:19;;;;;;;;;;;;;;;18.22;78.97;92334.78;2068464;69;20054;-78
2023/07/02 03:14:47;;;;;;;;;;;;;;;18.27;78.58;92328.53;2055565;70;20065;-78
2023/07/02 03:17:13;;;;;;;;;;;;;;;18.28;78.50;92332.84;2055588;69;20053;-78
2023/07/02 03:19:38;;;;;;;;;;;;;;;18.32;78.43;92337.19;2056177;69;20066;-79
2023/07/02 03:22:04;;;;;;;;;;;;;;;18.19;79.11;92336.13;2055645;70;20051;-80
2023/07/02 03:24:29;;;;;;;;;;;;;;;18.16;78.73;92329.66;2055518;69;20046;-80
2023/07/02 03:26:55;;;;;;;;;;;;;;;18.29;77.97;92336.41;2055601;70;20042;-81
2023/07/02 03:32:48;;;;;;;;;;;;;;;18.19;79.06;92344.66;2055280;69;20142;-81
2023/07/02 03:35:14;;;;;;;;;;;;;;;18.21;78.41;92339.75;2068719;69;20165;-77
2023/07/02 03:37:43;;;;;;;;;;;;;;;18.25;78.60;92344.84;2057810;69;20057;-79
2023/07/02 03:40:09;;;;;;;;;;;;;;;18.20;78.47;92341.16;2069325;69;20437;-79
2023/07/02 03:42:34;;;;;;;;;;;;;;;18.27;78.01;92344.91;2055278;69;20458;-79
2023/07/02 03:45:00;;;;;;;;;;;;;;;18.19;78.88;92350.38;2055537;69;20046;-79
2023/07/02 03:47:26;;;;;;;;;;;;;;;18.10;79.91;92352.28;2055344;70;20042;-80
2023/07/02 03:49:51;;;;;;;;;;;;;;;18.15;78.79;92347.44;2055530;70;20054;-79
2023/07/02 03:52:17;;;;;;;;;;;;;;;18.14;80.11;92354.50;2055751;70;20144;-80
2023/07/02 03:54:42;;;;;;;;;;;;;;;18.12;80.32;92351.63;2055786;70;20047;-79
2023/07/02 03:57:08;;;;;;;;;;;;;;;18.18;79.51;92352.50;2055614;70;20062;-79
2023/07/02 03:59:33;;;;;;;;;;;;;;;18.21;78.81;92361.84;2055607;70;20083;-80
2023/07/02 04:01:59;;;;;;;;;;;;;;;17.89;81.10;92356.69;2055602;70;20054;-78
2023/07/02 04:04:24;;;;;;;;;;;;;;;18.10;80.65;92354.41;2055434;69;20061;-78
2023/07/02 04:06:50;;;;;;;;;;;;;;;18.15;79.79;92362.41;2068511;69;20054;-81
2023/07/02 04:09:15;;;;;;;;;;;;;;;18.13;80.59;92364.47;2055549;70;20080;-81
2023/07/02 04:11:41;;;;;;;;;;;;;;;18.16;79.69;92363.84;2068581;69;20077;-80
2023/07/02 04:14:06;;;;;;;;;;;;;;;17.97;80.37;92365.47;2055516;70;20077;-79
2023/07/02 04:16:33;;;;;;;;;;;;;;;17.95;81.04;92365.41;2068402;69;20172;-80
2023/07/02 04:18:58;;;;;;;;;;;;;;;18.15;80.25;92367.38;2055298;70;20527;-80
2023/07/02 04:21:23;;;;;;;;;;;;;;;18.20;79.21;92371.78;2055638;70;20149;-81
2023/07/02 04:23:49;;;;;;;;;;;;;;;18.14;79.90;92380.16;2068459;69;20062;-80
2023/07/02 04:26:14;;;;;;;;;;;;;;;18.18;79.95;92383.09;2068456;69;20042;-80
2023/07/02 04:28:40;;;;;;;;;;;;;;;18.14;80.42;92385.84;2055604;70;20055;-80
2023/07/02 04:31:05;;;;;;;;;;;;;;;18.15;80.39;92390.16;2055678;69;20433;-79
2023/07/02 04:33:35;;;;;;;;;;;;;;;18.22;80.03;92394.63;2055887;70;20082;-79
2023/07/02 04:36:01;;;;;;;;;;;;;;;18.26;79.65;92394.72;2056072;70;20053;-78
2023/07/02 04:38:28;;;;;;;;;;;;;;;18.33;79.15;92399.22;2055941;70;20137;-81
2023/07/02 04:40:53;;;;;;;;;;;;;;;18.32;79.36;92397.75;2068562;69;20066;-83
2023/07/02 04:43:20;;;;;;;;;;;;;;;18.35;78.75;92399.25;2056068;69;20050;-81
2023/07/02 04:45:48;;;;;;;;;;;;;;;18.00;80.75;92400.41;2055967;70;20046;-81
2023/07/02 04:48:14;;;;;;;;;;;;;;;18.05;80.88;92407.66;2055888;70;20050;-81
2023/07/02 04:50:41;;;;;;;;;;;;;;;18.21;80.51;92413.13;2068833;69;20123;-81
2023/07/02 04:53:06;;;;;;;;;;;;;;;18.25;79.99;92413.94;2056152;70;20142;-80
2023/07/02 04:55:32;;;;;;;;;;;;;;;18.31;79.66;92410.53;2056237;70;20141;-81
2023/07/02 04:57:57;;;;;;;;;;;;;;;18.27;79.81;92410.44;2055660;70;20489;-81
2023/07/02 05:00:23;;;;;;;;;;;;;;;18.07;80.37;92410.59;2055865;70;20130;-81
2023/07/02 05:02:48;;;;;;;;;;;;;;;18.04;79.92;92415.50;2055803;69;20112;-81
2023/07/02 05:05:14;;;;;;;;;;;;;;;18.22;79.40;92423.09;2056037;70;20124;-81
2023/07/02 05:07:40;;;;;;;;;;;;;;;18.09;79.96;92415.59;2055876;70;20050;-81
2023/07/02 05:10:06;;;;;;;;;;;;;;;17.98;82.02;92420.31;2055911;70;20142;-80
2023/07/02 05:12:32;;;;;;;;;;;;;;;17.92;81.71;92420.13;2056017;69;20133;-82
2023/07/02 05:14:57;;;;;;;;;;;;;;;18.25;79.66;92424.63;2055944;70;20504;-81
2023/07/02 05:17:23;;;;;;;;;;;;;;;18.32;79.79;92423.38;2068796;69;20058;-80
2023/07/02 05:19:50;;;;;;;;;;;;;;;18.42;80.08;92435.09;2069035;69;20077;-80
2023/07/02 05:25:45;;;;;;;;;;;;;;;18.49;79.34;92419.59;2055965;69;20089;-80
2023/07/02 05:28:11;;;;;;;;;;;;;;;18.44;79.06;92425.84;2055593;69;20042;-80
2023/07/02 05:30:36;;;;;;;;;;;;;;;18.48;77.21;92425.97;2070850;69;20115;-80
2023/07/02 05:33:02;;;;;;;;;;;;;;;18.44;79.21;92423.00;2057406;69;20050;-79
2023/07/02 05:35:27;;;;;;;;;;;;;;;18.55;77.54;92421.88;2056063;69;20111;-80
2023/07/02 05:37:53;;;;;;;;;;;;;;;18.48;78.80;92408.88;2056207;69;20053;-79
2023/07/02 05:40:18;;;;;;;;;;;;;;;18.16;79.69;92420.09;2055958;70;20171;-80
2023/07/02 05:42:45;;;;;;;;;;;;;;;18.20;80.79;92426.63;2055726;70;20050;-79
2023/07/02 05:45:10;;;;;;;;;;;;;;;18.56;79.06;92420.50;2056021;70;20057;-80
2023/07/02 05:47:37;;;;;;;;;;;;;;;18.78;79.24;92423.97;2055701;70;20046;-78
2023/07/02 05:50:03;;;;;;;;;;;;;;;18.79;78.73;92421.84;2055382;70;20137;-79
2023/07/02 05:52:29;;;;;;;;;;;;;;;18.89;78.72;92422.09;2068529;69;20169;-78
2023/07/02 05:54:54;;;;;;;;;;;;;;;18.91;76.81;92427.09;2055945;69;20150;-79
2023/07/02 05:57:20;;;;;;;;;;;;;;;18.47;79.32;92430.22;2055691;70;20150;-78
2023/07/02 05:59:45;;;;;;;;;;;;;;;18.74;78.06;92431.69;2055756;69;20496;-80
2023/07/02 06:05:40;;;;;;;;;;;;;;;18.81;77.01;92432.56;2055713;69;20073;-79
2023/07/02 06:08:05;;;;;;;;;;;;;;;18.91;75.44;92427.09;2068713;69;20050;-80
2023/07/02 06:10:30;;;;;;;;;;;;;;;18.78;77.67;92441.06;2055622;70;20137;-79
2023/07/02 06:12:56;;;;;;;;;;;;;;;18.95;77.47;92438.63;2055634;70;20124;-82
2023/07/02 06:15:21;;;;;;;;;;;;;;;19.25;75.46;92438.66;2055966;70;20053;-81
2023/07/02 06:17:47;;;;;;;;;;;;;;;19.43;74.38;92433.41;2055771;70;20149;-79
2023/07/02 06:20:12;;;;;;;;;;;;;;;19.32;75.50;92437.41;2055840;70;20050;-77
2023/07/02 06:22:38;;;;;;;;;;;;;;;19.44;75.51;92446.28;2055656;70;20051;-81
2023/07/02 06:25:03;;;;;;;;;;;;;;;19.31;75.73;92453.09;2055808;70;20057;-80
2023/07/02 06:27:29;;;;;;;;;;;;;;;19.49;74.88;92444.97;2055627;70;20081;-80
2023/07/02 06:29:54;;;;;;;;;;;;;;;19.58;73.43;92439.44;2055887;70;20053;-81
2023/07/02 06:32:20;;;;;;;;;;;;;;;19.55;73.19;92442.25;2055668;70;20149;-81
2023/07/02 06:34:46;;;;;;;;;;;;;;;19.70;73.69;92442.59;2055703;70;20145;-77
2023/07/02 06:37:11;;;;;;;;;;;;;;;19.86;72.20;92457.25;2068713;69;20058;-77
2023/07/02 06:39:36;;;;;;;;;;;;;;;19.65;73.42;92453.19;2055716;70;20147;-77
2023/07/02 06:42:02;;;;;;;;;;;;;;;19.03;75.70;92459.53;2055703;69;20482;-79
2023/07/02 06:44:31;;;;;;;;;;;;;;;18.99;75.19;92461.56;2068374;69;20116;-81
2023/07/02 06:46:56;;;;;;;;;;;;;;;19.35;75.06;92456.03;2055639;70;20046;-80
2023/07/02 06:49:21;;;;;;;;;;;;;;;19.68;72.47;92451.13;2068588;69;20062;-82
2023/07/02 06:51:47;;;;;;;;;;;;;;;19.67;71.74;92450.41;2055446;70;20399;-80
2023/07/02 06:54:13;;;;;;;;;;;;;;;19.58;71.61;92445.16;2055545;70;20047;-81
2023/07/02 06:56:38;;;;;;;;;;;;;;;19.82;71.36;92448.59;2055821;69;20577;-79
2023/07/02 06:59:05;;;;;;;;;;;;;;;19.96;70.37;92442.47;2055654;70;20143;-79
2023/07/02 07:01:30;;;;;;;;;;;;;;;19.87;72.69;92449.41;2055504;70;20054;-78
2023/07/02 07:03:56;;;;;;;;;;;;;;;20.00;73.27;92442.56;2055505;69;20505;-79
2023/07/02 07:06:21;;;;;;;;;;;;;;;20.13;71.05;92447.13;2055644;70;20478;-78
2023/07/02 07:08:47;;;;;;;;;;;;;;;20.28;70.74;92457.44;2068645;69;20394;-80
2023/07/02 07:11:12;;;;;;;;;;;;;;;19.98;71.05;92456.81;2055509;69;20054;-79
2023/07/02 07:13:37;;;;;;;;;;;;;;;20.05;70.77;92466.94;2055731;70;20054;-78
2023/07/02 07:16:03;;;;;;;;;;;;;;;20.29;68.45;92455.31;2055738;70;20074;-79
2023/07/02 07:18:28;;;;;;;;;;;;;;;20.42;68.19;92456.28;2056047;69;20069;-80
2023/07/02 07:20:54;;;;;;;;;;;;;;;20.39;68.48;92454.78;2055638;70;20046;-79
2023/07/02 07:23:19;;;;;;;;;;;;;;;20.64;68.16;92468.19;2057513;70;20428;-79
2023/07/02 07:25:45;;;;;;;;;;;;;;;20.87;67.67;92463.63;2057571;70;20046;-80
2023/07/02 07:28:15;;;;;;;;;;;;;;;20.88;67.17;92462.22;2055410;70;20057;-81
2023/07/02 07:30:41;;;;;;;;;;;;;;;20.89;67.26;92460.84;2055562;70;20050;-80
2023/07/02 07:33:07;;;;;;;;;;;;;;;21.13;66.88;92456.97;2055486;70;20133;-80
2023/07/02 07:35:32;;;;;;;;;;;;;;;20.99;66.36;92449.56;2055734;70;20058;-79
2023/07/02 07:37:58;;;;;;;;;;;;;;;20.73;68.10;92457.66;2055101;69;20077;-78
2023/07/02 07:40:23;;;;;;;;;;;;;;;20.97;67.46;92457.38;2055548;70;20080;-79
2023/07/02 07:42:48;;;;;;;;;;;;;;;21.16;67.80;92456.28;2068551;69;20073;-79
2023/07/02 07:45:14;;;;;;;;;;;;;;;21.28;66.03;92459.38;2055546;70;20046;-78
2023/07/02 07:47:39;;;;;;;;;;;;;;;21.13;66.54;92465.53;2055396;70;20100;-78
2023/07/02 07:50:09;;;;;;;;;;;;;;;21.36;65.81;92458.81;2055336;70;20050;-81
2023/07/02 07:52:36;;;;;;;;;;;;;;;21.64;65.27;92449.97;2068107;69;20422;-81
2023/07/02 07:55:01;;;;;;;;;;;;;;;21.70;64.17;92466.53;2055626;70;20389;-81
2023/07/02 07:57:27;;;;;;;;;;;;;;;21.89;65.17;92461.78;2055411;70;20137;-80
2023/07/02 07:59:52;;;;;;;;;;;;;;;21.66;64.85;92455.00;2068434;69;20150;-85
2023/07/02 08:05:46;;;;;;;;;;;;;;;21.66;65.29;92461.44;2055492;69;20042;-80
2023/07/02 08:11:40;;;;;;;;;;;;;;;22.06;63.38;92457.75;2056044;69;20436;-78
2023/07/02 08:14:05;;;;;;;;;;;;;;;22.14;64.00;92457.19;2069092;69;20474;-77
2023/07/02 08:16:31;;;;;;;;;;;;;;;22.11;62.56;92464.97;2055891;70;20058;-77
2023/07/02 08:18:56;;;;;;;;;;;;;;;21.88;63.90;92458.22;2055870;70;20054;-78
2023/07/02 08:21:23;;;;;;;;;;;;;;;21.65;63.79;92456.41;2055821;69;20094;-81
2023/07/02 08:23:49;;;;;;;;;;;;;;;21.68;63.26;92452.91;2068704;69;20478;-79
2023/07/02 08:26:14;;;;;;;;;;;;;;;21.64;62.08;92454.97;2055860;70;20052;-78
2023/07/02 08:28:40;;;;;;;;;;;;;;;22.02;61.67;92464.13;2055941;69;20111;-80
2023/07/02 08:31:05;;;;;;;;;;;;;;;21.93;62.27;92456.84;2057410;70;20168;-79
2023/07/02 08:33:32;;;;;;;;;;;;;;;22.09;61.15;92456.38;2056209;69;20070;-79
2023/07/02 08:35:57;;;;;;;;;;;;;;;22.29;61.49;92461.69;2056014;70;20142;-78
2023/07/02 08:38:23;;;;;;;;;;;;;;;22.25;61.15;92462.34;2056005;70;20054;-79
2023/07/02 08:40:49;;;;;;;;;;;;;;;21.40;59.92;92456.03;2055668;70;20066;-78
2023/07/02 08:43:14;;;;;;;;;;;;;;;21.73;59.61;92454.41;2055780;70;20552;-78
2023/07/02 08:45:41;;;;;;;;;;;;;;;22.06;58.98;92454.88;2055984;70;20085;-79
2023/07/02 08:48:06;;;;;;;;;;;;;;;22.28;59.23;92460.25;2055817;70;20086;-78
2023/07/02 08:50:32;;;;;;;;;;;;;;;22.53;59.09;92456.25;2055915;70;20080;-78
2023/07/02 08:52:57;;;;;;;;;;;;;;;22.64;59.23;92453.53;2056061;70;20111;-78
2023/07/02 08:55:22;;;;;;;;;;;;;;;22.97;58.38;92449.63;2068995;69;20149;-79
2023/07/02 08:58:00;;;;;;;;;;;;;;;23.00;57.88;92453.22;2056094;70;20136;-79
2023/07/02 09:00:26;;;;;;;;;;;;;;;22.35;58.92;92441.69;2055927;70;20061;-80
2023/07/02 09:02:51;;;;;;;;;;;;;;;22.10;60.50;92439.88;2055784;69;20054;-80
2023/07/02 09:05:17;;;;;;;;;;;;;;;22.63;59.61;92443.44;2055858;70;20042;-79
2023/07/02 09:07:46;;;;;;;;;;;;;;;22.62;59.20;92436.28;2068832;69;20054;-78
2023/07/02 09:10:11;;;;;;;;;;;;;;;22.80;57.73;92436.47;2055750;70;20053;-78
2023/07/02 09:12:38;;;;;;;;;;;;;;;22.44;58.53;92431.03;2055626;70;20050;-77
2023/07/02 09:15:06;;;;;;;;;;;;;;;22.74;57.98;92430.69;2056185;70;20471;-77
2023/07/02 09:17:33;;;;;;;;;;;;;;;22.59;57.49;92426.94;2056026;69;20096;-78
2023/07/02 09:20:04;;;;;;;;;;;;;;;23.16;57.85;92427.56;2055893;70;20062;-77
2023/07/02 09:22:30;;;;;;;;;;;;;;;23.67;56.65;92436.63;2056011;69;20099;-78
2023/07/02 09:24:58;;;;;;;;;;;;;;;23.89;56.36;92433.22;2055964;70;20051;-77
2023/07/02 09:27:36;;;;;;;;;;;;;;;23.61;55.83;92430.09;2055978;70;20047;-78
2023/07/02 09:30:08;;;;;;;;;;;;;;;23.74;54.83;92435.28;2055786;70;20148;-78
2023/07/02 09:32:33;;;;;;;;;;;;;;;23.37;53.52;92427.72;2055745;69;20047;-76
2023/07/02 09:34:59;;;;;;;;;;;;;;;22.89;55.98;92432.31;2055903;70;20159;-79
2023/07/02 09:37:24;;;;;;;;;;;;;;;23.11;55.40;92436.84;2068693;69;20149;-80
2023/07/02 09:39:51;;;;;;;;;;;;;;;23.06;55.97;92433.94;2055610;70;20061;-78
2023/07/02 09:42:19;;;;;;;;;;;;;;;23.28;55.70;92435.56;2055735;69;20054;-79
2023/07/02 09:44:45;;;;;;;;;;;;;;;22.63;57.49;92431.97;2055805;70;20491;-79
2023/07/02 09:47:12;;;;;;;;;;;;;;;23.16;56.22;92436.16;2068696;69;20050;-79
2023/07/02 09:49:38;;;;;;;;;;;;;;;23.14;56.08;92441.16;2055734;69;20042;-79
2023/07/02 09:52:08;;;;;;;;;;;;;;;22.95;56.81;92432.34;2055711;70;20137;-79
2023/07/02 09:54:34;;;;;;;;;;;;;;;22.75;58.25;92432.84;2055780;70;20107;-78
2023/07/02 09:56:59;;;;;;;;;;;;;;;22.93;58.51;92431.63;2055789;69;20073;-81
2023/07/02 09:59:25;;;;;;;;;;;;;;;22.90;59.33;92433.03;2055745;70;20050;-77
2023/07/02 10:01:52;;;;;;;;;;;;;;;23.12;58.63;92435.41;2055415;69;20058;-80
2023/07/02 10:04:19;;;;;;;;;;;;;;;22.79;58.11;92432.88;2055612;70;20138;-78
2023/07/02 10:06:52;;;;;;;;;;;;;;;22.70;57.97;92428.50;2055763;69;20047;-79
2023/07/02 10:09:18;;;;;;;;;;;;;;;22.73;58.42;92427.09;2055697;70;20062;-81
2023/07/02 10:11:44;;;;;;;;;;;;;;;23.38;56.85;92427.03;2055748;70;20142;-82
2023/07/02 10:14:09;;;;;;;;;;;;;;;23.87;55.23;92421.72;2055693;69;20109;-82
2023/07/02 10:16:48;;;;;;;;;;;;;;;23.44;56.07;92418.47;2055469;70;20054;-83
2023/07/02 10:19:13;;;;;;;;;;;;;;;24.00;54.96;92431.13;2065928;69;20482;-83
2023/07/02 10:21:39;;;;;;;;;;;;;;;23.97;55.29;92427.53;2055857;70;20074;-78
2023/07/02 10:24:11;;;;;;;;;;;;;;;24.20;54.93;92424.78;2068753;69;20055;-81
2023/07/02 10:26:36;;;;;;;;;;;;;;;23.89;55.28;92426.75;2068664;69;20069;-83
2023/07/02 10:29:02;;;;;;;;;;;;;;;23.81;54.49;92428.13;2055706;70;20070;-81
2023/07/02 10:31:27;;;;;;;;;;;;;;;23.31;55.15;92425.53;2055689;69;20394;-83
2023/07/02 10:33:53;;;;;;;;;;;;;;;23.39;54.04;92417.00;2055648;70;20047;-80
2023/07/02 10:36:23;;;;;;;;;;;;;;;24.16;53.52;92416.84;2055822;70;20046;-82
2023/07/02 10:38:49;;;;;;;;;;;;;;;24.43;53.39;92414.16;2055692;70;20506;-82
2023/07/02 10:44:52;;;;;;;;;;;;;;;24.44;51.96;92419.19;2055742;70;20467;-80
2023/07/02 10:47:18;;;;;;;;;;;;;;;24.42;51.41;92412.69;2055606;70;20136;-81
2023/07/02 10:49:44;;;;;;;;;;;;;;;24.84;50.56;92415.03;2055647;70;20042;-78
2023/07/02 10:52:09;;;;;;;;;;;;;;;25.21;49.54;92407.22;2055435;70;20461;-81
2023/07/02 10:54:39;;;;;;;;;;;;;;;25.97;46.80;92416.59;2055515;70;20066;-83
2023/07/02 10:57:05;;;;;;;;;;;;;;;27.19;44.63;92409.03;2055675;70;20084;-81
2023/07/02 10:59:31;;;;;;;;;;;;;;;27.00;45.19;92417.06;2055953;70;20447;-82
2023/07/02 11:01:58;;;;;;;;;;;;;;;26.88;45.67;92420.00;2055786;70;20462;-80
2023/07/02 11:04:24;;;;;;;;;;;;;;;27.34;44.33;92416.16;2061081;70;20398;-80
2023/07/02 11:06:50;;;;;;;;;;;;;;;27.17;45.39;92418.44;2057365;69;20065;-80
2023/07/02 11:12:45;;;;;;;;;;;;;;;25.84;46.48;92412.28;2055677;69;20149;-79
2023/07/02 11:15:11;;;;;;;;;;;;;;;25.59;45.77;92411.56;2055642;70;20479;-78
2023/07/02 11:17:37;;;;;;;;;;;;;;;25.18;48.18;92410.81;2055477;69;20119;-80
2023/07/02 11:20:05;;;;;;;;;;;;;;;25.61;49.02;92411.56;2055913;70;20050;-83
2023/07/02 11:22:31;;;;;;;;;;;;;;;25.34;48.60;92416.59;2068583;69;20089;-80
2023/07/02 11:24:56;;;;;;;;;;;;;;;25.37;49.71;92415.16;2055578;70;20050;-80
2023/07/02 11:27:22;;;;;;;;;;;;;;;25.60;48.32;92407.25;2055683;70;20069;-80
2023/07/02 11:29:47;;;;;;;;;;;;;;;26.00;48.53;92409.41;2055622;70;20042;-80
2023/07/02 11:32:14;;;;;;;;;;;;;;;28.58;43.44;92399.91;2055531;70;20149;-79
2023/07/02 11:34:39;;;;;;;;;;;;;;;27.29;42.45;92403.19;2055528;70;20142;-81
2023/07/02 11:37:05;;;;;;;;;;;;;;;26.53;45.18;92400.66;2055566;70;20047;-81
2023/07/02 11:39:31;;;;;;;;;;;;;;;25.37;46.81;92400.03;2055519;70;20227;-80
2023/07/02 11:41:56;;;;;;;;;;;;;;;25.93;46.64;92396.44;2055989;69;20050;-81
2023/07/02 11:44:22;;;;;;;;;;;;;;;26.95;44.09;92395.44;2056022;69;20073;-80
2023/07/02 11:46:48;;;;;;;;;;;;;;;27.50;40.21;92401.59;2056119;70;20541;-80
2023/07/02 11:49:13;;;;;;;;;;;;;;;26.25;41.46;92398.56;2056000;70;20054;-80
2023/07/02 11:51:39;;;;;;;;;;;;;;;26.22;43.47;92397.13;2068991;69;20506;-79
2023/07/02 11:54:06;;;;;;;;;;;;;;;26.79;40.51;92393.31;2055970;70;20478;-79
2023/07/02 11:56:31;;;;;;;;;;;;;;;28.95;39.38;92405.28;2068974;69;20057;-80
2023/07/02 11:58:57;;;;;;;;;;;;;;;29.04;38.87;92404.44;2055991;70;20050;-81
2023/07/02 12:01:22;;;;;;;;;;;;;;;26.97;39.09;92395.41;2055954;70;20508;-80
2023/07/02 12:03:48;;;;;;;;;;;;;;;25.44;40.31;92389.97;2055853;69;20089;-81
2023/07/02 12:06:13;;;;;;;;;;;;;;;26.05;41.59;92390.66;2055659;70;20138;-80
2023/07/02 12:08:39;;;;;;;;;;;;;;;26.60;40.30;92387.63;2055951;70;20139;-80
2023/07/02 12:11:04;;;;;;;;;;;;;;;26.15;40.35;92386.31;2055900;70;20050;-81
2023/07/02 12:13:30;;;;;;;;;;;;;;;30.14;34.42;92387.59;2056094;70;20094;-81
2023/07/02 12:15:55;;;;;;;;;;;;;;;31.42;33.83;92384.38;2056115;70;20107;-80
2023/07/02 12:18:20;;;;;;;;;;;;;;;30.47;33.53;92387.00;2055884;70;20051;-79
2023/07/02 12:20:46;;;;;;;;;;;;;;;30.18;35.33;92375.91;2055997;70;20142;-80
2023/07/02 12:23:11;;;;;;;;;;;;;;;30.91;32.34;92373.09;2056026;70;20054;-81
2023/07/02 12:25:37;;;;;;;;;;;;;;;28.49;36.02;92373.25;2055710;70;20052;-82
2023/07/02 12:28:03;;;;;;;;;;;;;;;28.82;36.57;92373.56;2055959;70;20055;-82
2023/07/02 12:30:29;;;;;;;;;;;;;;;28.59;35.28;92367.34;2055914;70;20074;-82
2023/07/02 12:32:55;;;;;;;;;;;;;;;28.22;37.34;92372.06;2068895;69;20170;-82
2023/07/02 12:35:21;;;;;;;;;;;;;;;28.39;37.43;92370.47;2056038;70;20047;-83
2023/07/02 12:37:49;;;;;;;;;;;;;;;27.89;37.55;92366.59;2055993;70;20054;-82
2023/07/02 12:40:15;;;;;;;;;;;;;;;28.29;38.33;92374.16;2055993;69;20088;-83
2023/07/02 12:42:41;;;;;;;;;;;;;;;27.66;38.28;92366.06;2055919;70;20475;-83
2023/07/02 12:45:07;;;;;;;;;;;;;;;27.09;40.18;92361.41;2056955;70;20123;-81
2023/07/02 12:47:32;;;;;;;;;;;;;;;27.35;40.01;92368.47;2055964;69;20052;-80
2023/07/02 12:49:58;;;;;;;;;;;;;;;27.00;39.61;92365.06;2055888;70;20124;-82
2023/07/02 12:52:23;;;;;;;;;;;;;;;27.67;38.01;92360.97;2056043;70;20074;-85
2023/07/02 12:54:49;;;;;;;;;;;;;;;27.69;38.14;92355.91;2060372;70;20091;-80
2023/07/02 13:00:43;;;;;;;;;;;;;;;28.48;37.06;92357.34;2055941;69;20057;-80
2023/07/02 13:03:10;;;;;;;;;;;;;;;28.53;36.23;92360.91;2055776;69;20053;-80
2023/07/02 13:05:36;;;;;;;;;;;;;;;27.89;38.39;92363.00;2068857;69;20058;-80
2023/07/02 13:08:02;;;;;;;;;;;;;;;27.90;37.17;92355.75;2055883;69;20059;-81
2023/07/02 13:10:33;;;;;;;;;;;;;;;27.98;37.93;92355.69;2055822;69;20051;-83
2023/07/02 13:12:59;;;;;;;;;;;;;;;27.80;37.96;92347.88;2055914;70;20141;-81
2023/07/02 13:18:56;;;;;;;;;;;;;;;27.77;37.84;92347.19;2055790;69;20049;-80
2023/07/02 13:21:22;;;;;;;;;;;;;;;27.89;36.14;92340.56;2068767;69;20055;-80
2023/07/02 13:23:47;;;;;;;;;;;;;;;27.79;38.54;92343.56;2055866;69;20057;-80
2023/07/02 13:26:13;;;;;;;;;;;;;;;26.89;38.33;92338.41;2055949;70;20425;-82
2023/07/02 13:28:38;;;;;;;;;;;;;;;27.22;37.10;92338.94;2055823;70;20489;-83